Weather reports worldwide

Advertisment
La Molina, Spain (8117): temperature & dewpoint: 19.03.2019 07:00:00 - 25.03.2019 07:00:00 (CET)La Molina, Spain (8117): wind speed & gusts: 19.03.2019 07:00:00 - 25.03.2019 07:00:00 (CET)La Molina, Spain (8117): wind direction: 19.03.2019 07:00:00 - 25.03.2019 07:00:00 (CET)La Molina, Spain (8117): visibility: 19.03.2019 07:00:00 - 25.03.2019 07:00:00 (CET)La Molina, Spain (8117): sunshine duration: 19.03.2019 07:00:00 - 25.03.2019 07:00:00 (CET)La Molina, Spain (8117): precipitation: 19.03.2019 07:00:00 - 25.03.2019 07:00:00 (CET)
Date & Time tt [°C] td [°C] ff [km/h] ff [kn] fx [km/h] fx [kn] dd vv [km] sd [min] rr [mm]
25.03.2019 07:00:00 - - - - - - - - - -
25.03.2019 06:00:00 1,2 -7,5 5 3 13 7 ESE 20 0 0,0
25.03.2019 05:00:00 2,0 -6,7 9 5 15 8 S 20 0 0,0
25.03.2019 04:00:00 1,3 -6,0 7 4 13 7 SW 20 0 0,0
25.03.2019 03:00:00 1,3 -4,8 6 3 13 7 S 20 0 0,0
25.03.2019 02:00:00 2,4 -4,2 8 4 15 8 SSW 20 0 0,0
25.03.2019 01:00:00 3,1 -3,3 8 5 15 8 SSW 20 0 -
25.03.2019 00:00:00 3,5 -2,2 8 5 15 8 SSW 20 0 0,0
24.03.2019 23:00:00 3,0 -1,7 6 3 11 6 SSE 20 0 0,0
24.03.2019 22:00:00 4,0 -1,4 6 3 12 7 SSW 20 0 0,0
24.03.2019 21:00:00 5,8 -1,4 4 2 26 14 SSE 20 0 0,0
24.03.2019 20:00:00 6,4 -1,2 6 4 26 14 S 20 0 0,0
24.03.2019 19:00:00 7,9 -0,3 9 5 19 11 SE 20 0 -
24.03.2019 18:00:00 10,2 -2,8 11 6 21 11 SE 20 24 0,0
24.03.2019 17:00:00 11,7 -4,2 12 7 27 14 ESE 20 48 0,0
24.03.2019 16:00:00 12,6 -3,6 13 7 27 14 SE 20 56 0,0
24.03.2019 15:00:00 14,2 -5,7 7 4 24 13 SSW 20 60 0,0
24.03.2019 14:00:00 13,0 -5,1 9 5 19 11 SE 20 60 0,0
24.03.2019 13:00:00 13,4 -7,5 6 3 18 10 E 20 60 -
24.03.2019 12:00:00 12,5 -8,2 9 5 16 9 NNW 20 60 0,0
24.03.2019 11:00:00 11,8 -11,0 4 2 10 5 W 20 50 0,0
24.03.2019 10:00:00 9,3 -6,5 1 1 7 4 SE 20 60 0,0
24.03.2019 09:00:00 4,8 -7,6 4 2 8 5 SSE 20 28 0,0
24.03.2019 08:00:00 2,0 -8,6 6 3 10 5 SE 20 0 0,0
24.03.2019 07:00:00 1,8 -9,0 6 4 11 6 ESE 20 0 -
24.03.2019 06:00:00 1,5 -9,1 7 4 11 6 ESE 20 0 0,0
24.03.2019 05:00:00 1,6 -9,0 5 3 12 6 ESE 20 0 0,0
24.03.2019 04:00:00 2,4 -8,6 8 5 13 7 ESE 20 0 0,0
24.03.2019 03:00:00 2,1 -8,8 7 4 11 6 SE 20 0 0,0
24.03.2019 02:00:00 1,9 -9,3 6 4 11 6 SSE 20 0 0,0
24.03.2019 01:00:00 2,8 -10,0 6 3 12 6 SE 20 0 -
24.03.2019 00:00:00 3,0 -7,4 7 4 12 7 SE 20 0 0,0
23.03.2019 23:00:00 3,8 -5,1 6 3 13 7 SE 20 0 0,0
23.03.2019 22:00:00 3,6 -2,5 6 3 11 6 SE 20 0 0,0
23.03.2019 21:00:00 5,7 -3,3 4 2 19 10 E 20 0 0,0
23.03.2019 20:00:00 7,2 -3,6 12 7 22 12 SSE 20 0 0,0
23.03.2019 19:00:00 8,5 -4,5 12 7 21 11 SSE 20 0 -
23.03.2019 18:00:00 11,1 -4,2 6 3 19 10 SSE 20 42 0,0
23.03.2019 17:00:00 11,6 -4,1 6 4 17 9 NE 20 23 0,0
23.03.2019 16:00:00 13,5 -5,1 10 5 27 15 N 20 60 0,0
23.03.2019 15:00:00 12,0 -5,1 11 6 31 17 NE 20 60 0,0
23.03.2019 14:00:00 13,2 -7,5 6 3 19 10 W 20 60 0,0
23.03.2019 13:00:00 12,6 -6,0 8 5 16 9 SE 20 60 -
23.03.2019 12:00:00 12,2 -7,5 4 2 14 7 N 20 60 0,0
23.03.2019 11:00:00 10,8 -7,1 3 2 11 6 N 20 51 0,0
23.03.2019 10:00:00 8,6 -6,7 5 3 11 6 SSE 20 60 0,0
23.03.2019 09:00:00 5,0 -5,9 5 3 10 5 S 20 26 0,0
23.03.2019 08:00:00 2,5 -6,7 6 3 10 6 SSE 20 0 0,0
23.03.2019 07:00:00 1,4 -6,7 8 4 13 7 S 19 0 -
23.03.2019 06:00:00 1,3 -7,1 5 3 13 7 SE 20 0 0,0
23.03.2019 05:00:00 1,3 -6,7 6 3 9 5 SSE 20 0 0,0
23.03.2019 04:00:00 1,5 -6,7 6 3 11 6 SSE 20 0 0,0
23.03.2019 03:00:00 1,7 -5,6 8 4 11 6 SE 20 0 0,0
23.03.2019 02:00:00 1,8 -5,1 6 3 10 5 SE 20 0 0,0
23.03.2019 01:00:00 2,4 -5,2 5 3 12 6 ESE 20 0 -
23.03.2019 00:00:00 2,9 -3,9 4 2 11 6 E 20 0 0,0
22.03.2019 23:00:00 2,7 -2,7 6 3 11 6 SE 20 0 0,0
22.03.2019 22:00:00 4,2 -2,5 4 2 14 7 ESE 20 0 0,0
22.03.2019 21:00:00 3,8 -2,6 8 4 11 6 ESE 20 0 0,0
22.03.2019 20:00:00 4,8 -2,2 4 2 20 11 ESE 20 0 0,0
22.03.2019 19:00:00 6,7 -2,7 15 8 24 13 SSE 20 0 -
22.03.2019 18:00:00 9,3 -3,0 10 6 24 13 S 20 35 0,0
22.03.2019 17:00:00 10,5 -2,2 8 5 29 16 SE 20 47 0,0
22.03.2019 16:00:00 11,4 -1,7 11 6 29 15 ESE 20 59 0,0
22.03.2019 15:00:00 10,7 -2,7 16 8 26 14 SE 20 55 0,0
22.03.2019 14:00:00 11,2 -1,2 7 4 21 11 SE 20 54 0,0
22.03.2019 13:00:00 11,0 -1,2 6 4 21 11 ESE 20 59 -
22.03.2019 12:00:00 9,9 -1,2 9 5 18 10 S 20 57 0,0
22.03.2019 11:00:00 8,6 -1,2 10 5 18 10 SE 20 57 0,0
22.03.2019 10:00:00 7,0 -2,1 2 1 12 6 W 20 60 0,0
22.03.2019 09:00:00 3,5 -1,8 3 1 12 7 S 20 24 0,0
22.03.2019 08:00:00 0,5 -2,7 6 3 9 5 S 20 0 0,0
22.03.2019 07:00:00 -0,5 -4,2 5 3 11 6 SE 20 0 -
22.03.2019 06:00:00 -0,5 -5,4 4 2 10 5 SE 20 0 0,0
22.03.2019 05:00:00 -0,4 -6,0 6 3 10 6 ESE 20 0 0,0
22.03.2019 04:00:00 -0,4 -5,7 6 3 10 5 SE 20 0 0,0
22.03.2019 03:00:00 1,8 -6,4 3 1 23 12 NW 20 0 0,0
22.03.2019 02:00:00 2,7 -6,4 13 7 35 19 SE 20 0 0,0
22.03.2019 01:00:00 2,7 -6,0 14 8 24 13 SE 20 0 -
22.03.2019 00:00:00 0,1 -6,7 5 3 9 5 SE 20 0 0,0
21.03.2019 23:00:00 0,1 -7,1 5 3 13 7 ESE 20 0 0,0
21.03.2019 22:00:00 -0,1 -6,4 8 4 11 6 S 20 0 0,0
21.03.2019 21:00:00 0,6 -6,4 6 3 10 6 S 20 0 0,0
21.03.2019 20:00:00 1,2 -6,4 5 3 21 11 SE 20 0 0,0
21.03.2019 19:00:00 3,8 -7,1 14 8 28 15 SSE 20 0 -
21.03.2019 18:00:00 6,0 -7,1 9 5 27 14 ESE 20 52 0,0
21.03.2019 17:00:00 7,8 -7,5 13 7 19 11 SE 20 60 0,0
21.03.2019 16:00:00 9,5 -7,1 7 4 23 12 SSE 20 60 0,0
21.03.2019 15:00:00 8,0 -8,6 10 6 21 11 ESE 20 60 0,0
21.03.2019 14:00:00 7,5 -9,4 7 4 21 12 SSE 20 60 0,0
21.03.2019 13:00:00 7,4 -8,6 6 4 18 10 NNE 20 60 -
21.03.2019 12:00:00 6,6 -10,3 4 2 17 9 SW 20 60 0,0
21.03.2019 11:00:00 4,7 -7,7 3 1 10 5 W 20 57 0,0
21.03.2019 10:00:00 1,9 -7,9 4 2 7 4 SSE 20 60 0,0
21.03.2019 09:00:00 -1,4 -8,2 4 2 9 5 S 20 23 0,0
21.03.2019 08:00:00 -4,1 -7,8 5 3 9 5 SSE 5 0 0,0
21.03.2019 07:00:00 -4,8 -8,2 6 3 16 8 SSW 6 0 -
21.03.2019 06:00:00 -4,0 -7,5 8 5 12 7 S 6 0 0,0
21.03.2019 05:00:00 -3,9 -7,1 8 4 12 6 S 12 0 0,0
21.03.2019 04:00:00 -3,2 -6,7 6 3 13 7 SSW 9 0 0,0
21.03.2019 03:00:00 -3,1 -6,7 6 3 17 9 SSW 5 0 0,0
21.03.2019 02:00:00 -3,0 -7,5 8 4 15 8 SSW 14 0 0,0
21.03.2019 01:00:00 -2,3 -7,1 6 3 27 15 WSW 13 0 -
21.03.2019 00:00:00 -2,2 -6,7 2 1 18 10 E 19 0 0,0
20.03.2019 23:00:00 -2,2 -8,6 6 3 19 10 SSE 13 0 0,0
20.03.2019 22:00:00 -1,5 -7,8 6 3 23 12 SSW 15 0 0,0
20.03.2019 21:00:00 -2,3 -7,8 5 3 13 7 SE 15 0 0,0
20.03.2019 20:00:00 -0,9 -7,8 9 5 18 10 SW 12 0 0,0
20.03.2019 19:00:00 0,4 -7,8 3 2 17 9 NW 20 0 -
20.03.2019 18:00:00 3,2 -8,6 7 4 21 11 WNW 20 47 0,0
20.03.2019 17:00:00 6,2 -7,8 7 4 30 16 NNW 20 60 0,0
20.03.2019 16:00:00 6,7 -9,4 9 5 28 15 N 20 60 0,0
20.03.2019 15:00:00 6,6 -9,0 10 5 29 15 N 20 60 0,0
20.03.2019 14:00:00 5,9 -11,2 6 3 19 10 W 20 60 0,0
20.03.2019 13:00:00 4,7 -11,2 5 3 20 11 W 20 60 -
20.03.2019 12:00:00 4,3 -11,7 4 2 16 9 WSW 20 60 0,0
20.03.2019 11:00:00 1,6 -9,4 5 3 17 9 WNW 20 55 0,0
20.03.2019 10:00:00 -0,4 -9,4 7 4 23 12 W 20 60 0,0
20.03.2019 09:00:00 -2,3 -9,9 13 7 18 10 WSW 20 22 0,0
20.03.2019 08:00:00 -4,6 -8,6 6 3 14 8 SW 8 0 0,0
20.03.2019 07:00:00 -5,0 -8,2 5 3 15 8 SSW 8 0 -
20.03.2019 06:00:00 -4,1 -7,1 3 2 13 7 S 12 0 0,0
20.03.2019 05:00:00 -3,3 -7,1 7 4 19 10 NW 16 0 0,0
20.03.2019 04:00:00 -2,8 -6,7 8 4 24 13 W 15 0 0,0
20.03.2019 03:00:00 -3,0 -6,7 11 6 24 13 W 8 0 0,0
20.03.2019 02:00:00 -3,1 -6,7 6 4 21 11 N 19 0 0,0
20.03.2019 01:00:00 -3,4 -6,7 3 1 15 8 NE 20 0 -
20.03.2019 00:00:00 -3,3 -7,5 8 5 17 9 N 19 0 0,0
19.03.2019 23:00:00 -2,9 -6,7 5 3 12 7 N 20 0 0,0
19.03.2019 22:00:00 -2,8 -6,7 5 3 18 10 N 19 0 0,0
19.03.2019 21:00:00 -2,5 -6,0 6 3 13 7 N 20 0 0,0
19.03.2019 20:00:00 -2,3 -6,7 6 3 18 10 NNW 20 0 0,0
19.03.2019 19:00:00 -1,7 -6,7 9 5 19 10 NNW 20 0 -
19.03.2019 18:00:00 0,0 -5,7 8 5 27 15 NNE 20 41 0,0
19.03.2019 17:00:00 2,3 -6,7 12 6 28 15 NW 20 55 0,0
19.03.2019 16:00:00 2,9 -7,5 14 7 29 15 NW 20 44 0,0
19.03.2019 15:00:00 2,2 -6,0 11 6 32 18 NNW 17 42 0,0
19.03.2019 14:00:00 2,6 -6,4 13 7 29 16 NW 20 14 0,0
19.03.2019 13:00:00 0,7 -7,5 12 7 29 16 WNW 20 2 -
19.03.2019 12:00:00 0,0 -7,5 11 6 23 13 WNW 20 2 0,0
19.03.2019 11:00:00 -0,5 -6,4 11 6 29 16 WNW 20 3 0,0
19.03.2019 10:00:00 -1,1 -6,4 12 6 22 12 WNW 20 20 0,0
19.03.2019 09:00:00 -2,3 -5,7 3 2 14 8 N 14 0 0,0
19.03.2019 08:00:00 -2,5 -5,1 6 3 13 7 W 10 0 0,0
19.03.2019 07:00:00 -2,9 -5,7 4 2 17 9 S 8 0 -

tt = temperature
td = dewpoint
ff = wind speed
fx = gusts
dd = wind direction
vv = visibility
sd = sunshine duration
rr = precipitation

Next stations